»·PEaware :: N973SE KSBP-KBFL

N973SE :: KSBP-KBFL

FLIGHT INFORMATION

Flight Status: Arrived
Operator: Privately registered:
United States
More flights under this callsign
Pilot: Stig E. (4778)
Aircraft: Unknown
(DA62)
More flights by this aircraft type
Origin: KSBP San Luis Co Regl
United States
Destination: KBFL Meadows
United States
More flights between these airports :: More routes between these airports
Route: FLW GMN FASTO2
File this flight plan on PilotEdge
Remarks:
Altitude:
(Current/Filed)
9,500ft
Speed:
(Current/Filed)
170kts
Departed: 11-Aug-18 11:58 PM
Arrived: 12-Aug-18 12:56 AM
Distance/Time
Traveled:
79nm/0:58
Distance/Time
To Go:
Arrived

Flight Plot

Page will automatically refresh every two minutes.

Flight plan parsing failed; only flown route is shown


Map Options




Map Legend


Flown Route
Filed Route
Departure Airport
Arrival Airport
Navaid (VOR, NDB)
Fix

Horizontal Profiles

Position Reports

Time Latitude Longitude Heading Altitude Ground
Speed
11-Aug-18 23:47 35.234444 -120.632858 126 213ft 0kts
11-Aug-18 23:48 35.234444 -120.632858 126 213ft 0kts
11-Aug-18 23:49 35.234444 -120.632858 126 213ft 0kts
11-Aug-18 23:50 35.234444 -120.632858 126 213ft 0kts
11-Aug-18 23:51 35.234444 -120.632858 126 213ft 0kts
11-Aug-18 23:52 35.234444 -120.632858 126 213ft 0kts
11-Aug-18 23:53 35.234444 -120.632858 126 213ft 0kts
11-Aug-18 23:54 35.234444 -120.632858 126 213ft 0kts
11-Aug-18 23:55 35.234444 -120.632858 126 213ft 0kts
11-Aug-18 23:56 35.234371 -120.633189 306 213ft 8kts
11-Aug-18 23:57 35.234080 -120.633973 221 211ft 0kts
11-Aug-18 23:58 35.234101 -120.635313 306 207ft 35kts
11-Aug-18 23:59 35.247989 -120.659231 306 1039ft 90kts
12-Aug-18 00:00 35.235248 -120.683110 185 2199ft 99kts
12-Aug-18 00:01 35.217035 -120.661386 123 3467ft 95kts
12-Aug-18 00:02 35.205334 -120.627322 97 4886ft 97kts
12-Aug-18 00:03 35.202188 -120.600929 98 5860ft 98kts
12-Aug-18 00:04 35.197876 -120.567822 98 7052ft 100kts
12-Aug-18 00:05 35.193232 -120.534048 99 8235ft 102kts
12-Aug-18 00:06 35.188359 -120.499625 99 9401ft 104kts
12-Aug-18 00:07 35.181627 -120.453003 99 9507ft 161kts
12-Aug-18 00:08 35.173507 -120.397464 99 9504ft 168kts
12-Aug-18 00:09 35.165134 -120.340929 100 9505ft 170kts
12-Aug-18 00:10 35.156439 -120.284123 100 9507ft 170kts
12-Aug-18 00:11 35.147904 -120.227317 100 9508ft 170kts
12-Aug-18 00:12 35.139381 -120.170306 99 9509ft 171kts
12-Aug-18 00:13 35.130825 -120.113091 99 9509ft 171kts
12-Aug-18 00:14 35.122260 -120.055972 99 9509ft 171kts
12-Aug-18 00:15 35.113702 -119.999079 100 9509ft 170kts
12-Aug-18 00:16 35.105421 -119.941999 99 9509ft 170kts
12-Aug-18 00:17 35.097656 -119.884767 98 9509ft 170kts
12-Aug-18 00:18 35.084579 -119.829329 109 9509ft 170kts
12-Aug-18 00:19 35.068706 -119.774854 108 9509ft 170kts
12-Aug-18 00:20 35.052989 -119.720053 108 9499ft 171kts
12-Aug-18 00:21 35.037298 -119.665102 108 9482ft 172kts
12-Aug-18 00:22 35.021585 -119.610069 108 9469ft 172kts
12-Aug-18 00:23 35.005771 -119.554759 108 9458ft 172kts
12-Aug-18 00:24 34.989945 -119.499494 108 9451ft 172kts
12-Aug-18 00:25 34.974130 -119.444367 107 9451ft 172kts
12-Aug-18 00:26 34.958354 -119.389487 107 9449ft 171kts
12-Aug-18 00:27 34.942604 -119.335114 108 9444ft 171kts
12-Aug-18 00:28 34.926581 -119.280511 108 9437ft 171kts
12-Aug-18 00:29 34.910692 -119.225847 108 9436ft 170kts
12-Aug-18 00:30 34.894939 -119.171714 108 9435ft 170kts
12-Aug-18 00:31 34.879107 -119.117559 108 9435ft 169kts
12-Aug-18 00:32 34.863392 -119.063653 108 9441ft 168kts
12-Aug-18 00:33 34.847746 -119.010000 108 9467ft 167kts
12-Aug-18 00:34 34.832281 -118.956959 108 9520ft 166kts
12-Aug-18 00:35 34.816774 -118.903891 108 9569ft 165kts
12-Aug-18 00:36 34.804419 -118.859638 106 9608ft 165kts
12-Aug-18 00:37 34.820892 -118.836317 359 9643ft 167kts
12-Aug-18 00:38 34.866883 -118.845183 348 9185ft 167kts
12-Aug-18 00:39 34.912264 -118.855457 355 8583ft 166kts
12-Aug-18 00:40 34.958327 -118.859317 359 7987ft 165kts
12-Aug-18 00:41 35.004871 -118.860524 356 7395ft 166kts
12-Aug-18 00:42 35.050573 -118.860996 357 6820ft 162kts
12-Aug-18 00:43 35.095338 -118.861117 357 6167ft 160kts
12-Aug-18 00:44 35.139503 -118.861106 357 5528ft 158kts
12-Aug-18 00:45 35.183256 -118.861043 358 4896ft 156kts
12-Aug-18 00:46 35.224045 -118.860925 358 4732ft 136kts
12-Aug-18 00:47 35.260291 -118.860925 357 4734ft 127kts
12-Aug-18 00:48 35.285210 -118.877672 316 4491ft 103kts
12-Aug-18 00:49 35.305903 -118.902186 315 3970ft 104kts
12-Aug-18 00:50 35.326684 -118.927087 316 3414ft 105kts
12-Aug-18 00:51 35.346415 -118.950820 316 2864ft 97kts
12-Aug-18 00:52 35.365564 -118.973865 316 2340ft 96kts
12-Aug-18 00:53 35.383588 -118.995570 316 1846ft 96kts
12-Aug-18 00:54 35.402053 -119.017810 316 1347ft 89kts
12-Aug-18 00:55 35.419480 -119.038833 316 871ft 87kts
12-Aug-18 00:56 35.436101 -119.058902 315 497ft 61kts
12-Aug-18 00:57 35.440418 -119.062468 43 497ft 0kts
12-Aug-18 00:58 35.440418 -119.062468 43 497ft 0kts
12-Aug-18 00:59 35.438520 -119.059533 135 497ft 25kts
12-Aug-18 01:00 35.435082 -119.053978 47 497ft 12kts
12-Aug-18 01:01 35.435271 -119.051735 358 497ft 0kts

Navigation Log

Ident Type
Flight plan parsing failed, navigation log unavailable